sensor_id;sensor_type;location;lat;lon;timestamp;P1;durP1;ratioP1;P2;durP2;ratioP2
10661;SDS011;5379;51.034;7.006;2022-09-06T00:00:22;1.70;;;1.60;;
10661;SDS011;5379;51.034;7.006;2022-09-06T00:02:50;3.87;;;1.50;;
10661;SDS011;5379;51.034;7.006;2022-09-06T00:05:17;1.30;;;1.30;;
10661;SDS011;5379;51.034;7.006;2022-09-06T00:07:44;1.80;;;1.57;;
10661;SDS011;5379;51.034;7.006;2022-09-06T00:10:12;2.03;;;1.60;;
10661;SDS011;5379;51.034;7.006;2022-09-06T00:12:39;1.63;;;1.53;;
10661;SDS011;5379;51.034;7.006;2022-09-06T00:15:06;1.97;;;1.47;;
10661;SDS011;5379;51.034;7.006;2022-09-06T00:17:35;1.70;;;1.60;;
10661;SDS011;5379;51.034;7.006;2022-09-06T00:20:03;2.30;;;1.50;;
10661;SDS011;5379;51.034;7.006;2022-09-06T00:22:33;1.60;;;1.50;;
10661;SDS011;5379;51.034;7.006;2022-09-06T00:25:00;1.33;;;1.20;;
10661;SDS011;5379;51.034;7.006;2022-09-06T00:27:28;1.17;;;1.17;;
10661;SDS011;5379;51.034;7.006;2022-09-06T00:29:55;1.27;;;1.27;;
10661;SDS011;5379;51.034;7.006;2022-09-06T00:32:22;1.33;;;1.33;;
10661;SDS011;5379;51.034;7.006;2022-09-06T00:34:51;2.70;;;1.80;;
10661;SDS011;5379;51.034;7.006;2022-09-06T00:37:18;10.83;;;2.77;;
10661;SDS011;5379;51.034;7.006;2022-09-06T00:39:45;3.53;;;2.20;;
10661;SDS011;5379;51.034;7.006;2022-09-06T00:42:12;3.17;;;2.57;;
10661;SDS011;5379;51.034;7.006;2022-09-06T00:44:39;8.70;;;2.70;;
10661;SDS011;5379;51.034;7.006;2022-09-06T00:47:06;2.53;;;1.80;;
10661;SDS011;5379;51.034;7.006;2022-09-06T00:49:35;1.57;;;1.50;;
10661;SDS011;5379;51.034;7.006;2022-09-06T00:52:08;1.90;;;1.70;;
10661;SDS011;5379;51.034;7.006;2022-09-06T00:54:37;22.40;;;2.33;;
10661;SDS011;5379;51.034;7.006;2022-09-06T00:57:06;5.60;;;2.30;;
10661;SDS011;5379;51.034;7.006;2022-09-06T00:59:35;2.93;;;2.47;;
10661;SDS011;5379;51.034;7.006;2022-09-06T01:02:04;4.70;;;2.43;;
10661;SDS011;5379;51.034;7.006;2022-09-06T01:04:33;10.60;;;2.73;;
10661;SDS011;5379;51.034;7.006;2022-09-06T01:07:04;2.20;;;2.07;;
10661;SDS011;5379;51.034;7.006;2022-09-06T01:09:45;4.40;;;2.60;;
10661;SDS011;5379;51.034;7.006;2022-09-06T01:12:27;3.87;;;2.67;;
10661;SDS011;5379;51.034;7.006;2022-09-06T01:15:06;9.37;;;3.97;;
10661;SDS011;5379;51.034;7.006;2022-09-06T01:17:43;6.17;;;3.97;;
10661;SDS011;5379;51.034;7.006;2022-09-06T01:20:35;8.03;;;4.13;;
10661;SDS011;5379;51.034;7.006;2022-09-06T01:26:29;4.37;;;3.20;;
10661;SDS011;5379;51.034;7.006;2022-09-06T01:29:40;3.60;;;3.30;;
10661;SDS011;5379;51.034;7.006;2022-09-06T01:32:14;2.77;;;2.57;;
10661;SDS011;5379;51.034;7.006;2022-09-06T01:34:49;2.53;;;2.30;;
10661;SDS011;5379;51.034;7.006;2022-09-06T01:37:21;2.80;;;2.60;;
10661;SDS011;5379;51.034;7.006;2022-09-06T01:39:49;3.97;;;2.83;;
10661;SDS011;5379;51.034;7.006;2022-09-06T01:42:16;5.33;;;2.87;;
10661;SDS011;5379;51.034;7.006;2022-09-06T01:44:49;3.27;;;2.67;;
10661;SDS011;5379;51.034;7.006;2022-09-06T01:47:21;4.47;;;3.17;;
10661;SDS011;5379;51.034;7.006;2022-09-06T01:49:59;4.90;;;2.77;;
10661;SDS011;5379;51.034;7.006;2022-09-06T01:52:44;3.50;;;3.10;;
10661;SDS011;5379;51.034;7.006;2022-09-06T01:55:23;5.70;;;3.20;;
10661;SDS011;5379;51.034;7.006;2022-09-06T01:58:01;3.13;;;2.80;;
10661;SDS011;5379;51.034;7.006;2022-09-06T02:00:43;3.73;;;2.90;;
10661;SDS011;5379;51.034;7.006;2022-09-06T02:03:15;3.70;;;2.70;;
10661;SDS011;5379;51.034;7.006;2022-09-06T02:05:50;10.97;;;3.27;;
10661;SDS011;5379;51.034;7.006;2022-09-06T02:08:22;6.80;;;3.30;;
10661;SDS011;5379;51.034;7.006;2022-09-06T02:10:55;6.13;;;3.63;;
10661;SDS011;5379;51.034;7.006;2022-09-06T02:13:26;3.47;;;3.17;;
10661;SDS011;5379;51.034;7.006;2022-09-06T02:16:00;3.93;;;3.60;;
10661;SDS011;5379;51.034;7.006;2022-09-06T02:18:29;6.10;;;3.83;;
10661;SDS011;5379;51.034;7.006;2022-09-06T02:21:01;3.73;;;3.20;;
10661;SDS011;5379;51.034;7.006;2022-09-06T02:23:29;3.90;;;3.50;;
10661;SDS011;5379;51.034;7.006;2022-09-06T02:26:02;5.33;;;3.83;;
10661;SDS011;5379;51.034;7.006;2022-09-06T02:28:33;5.37;;;3.70;;
10661;SDS011;5379;51.034;7.006;2022-09-06T02:31:02;8.03;;;3.93;;
10661;SDS011;5379;51.034;7.006;2022-09-06T02:33:34;5.23;;;3.67;;
10661;SDS011;5379;51.034;7.006;2022-09-06T02:36:02;9.07;;;3.93;;
10661;SDS011;5379;51.034;7.006;2022-09-06T02:38:33;4.67;;;3.90;;
10661;SDS011;5379;51.034;7.006;2022-09-06T02:41:03;4.97;;;3.67;;
10661;SDS011;5379;51.034;7.006;2022-09-06T02:43:31;6.03;;;3.63;;
10661;SDS011;5379;51.034;7.006;2022-09-06T02:45:59;6.23;;;4.10;;
10661;SDS011;5379;51.034;7.006;2022-09-06T02:48:27;4.00;;;3.60;;
10661;SDS011;5379;51.034;7.006;2022-09-06T02:50:54;4.30;;;3.90;;
10661;SDS011;5379;51.034;7.006;2022-09-06T02:53:21;5.90;;;3.87;;
10661;SDS011;5379;51.034;7.006;2022-09-06T02:55:48;9.00;;;3.93;;
10661;SDS011;5379;51.034;7.006;2022-09-06T02:58:15;4.93;;;4.10;;
10661;SDS011;5379;51.034;7.006;2022-09-06T03:00:42;5.03;;;3.63;;
10661;SDS011;5379;51.034;7.006;2022-09-06T03:03:10;6.10;;;3.87;;
10661;SDS011;5379;51.034;7.006;2022-09-06T03:05:38;3.97;;;3.57;;
10661;SDS011;5379;51.034;7.006;2022-09-06T03:08:05;8.63;;;4.23;;
10661;SDS011;5379;51.034;7.006;2022-09-06T03:10:32;6.20;;;3.73;;
10661;SDS011;5379;51.034;7.006;2022-09-06T03:12:59;5.33;;;4.00;;
10661;SDS011;5379;51.034;7.006;2022-09-06T03:15:26;4.53;;;3.57;;
10661;SDS011;5379;51.034;7.006;2022-09-06T03:17:56;5.57;;;4.00;;
10661;SDS011;5379;51.034;7.006;2022-09-06T03:20:24;4.40;;;4.03;;
10661;SDS011;5379;51.034;7.006;2022-09-06T03:22:53;6.93;;;4.27;;
10661;SDS011;5379;51.034;7.006;2022-09-06T03:25:20;5.07;;;4.47;;
10661;SDS011;5379;51.034;7.006;2022-09-06T03:27:47;6.90;;;4.27;;
10661;SDS011;5379;51.034;7.006;2022-09-06T03:30:14;4.97;;;3.87;;
10661;SDS011;5379;51.034;7.006;2022-09-06T03:32:41;7.40;;;4.33;;
10661;SDS011;5379;51.034;7.006;2022-09-06T03:35:09;7.73;;;3.90;;
10661;SDS011;5379;51.034;7.006;2022-09-06T03:37:36;4.83;;;4.33;;
10661;SDS011;5379;51.034;7.006;2022-09-06T03:40:05;6.07;;;4.40;;
10661;SDS011;5379;51.034;7.006;2022-09-06T03:42:32;4.33;;;3.63;;
10661;SDS011;5379;51.034;7.006;2022-09-06T03:44:59;6.60;;;4.20;;
10661;SDS011;5379;51.034;7.006;2022-09-06T03:47:26;4.50;;;3.80;;
10661;SDS011;5379;51.034;7.006;2022-09-06T03:49:54;5.13;;;4.03;;
10661;SDS011;5379;51.034;7.006;2022-09-06T03:52:21;4.23;;;3.80;;
10661;SDS011;5379;51.034;7.006;2022-09-06T03:54:48;6.00;;;4.23;;
10661;SDS011;5379;51.034;7.006;2022-09-06T03:57:16;5.23;;;3.70;;
10661;SDS011;5379;51.034;7.006;2022-09-06T03:59:43;4.93;;;3.73;;
10661;SDS011;5379;51.034;7.006;2022-09-06T04:02:10;10.40;;;3.87;;
10661;SDS011;5379;51.034;7.006;2022-09-06T04:04:37;3.63;;;3.33;;
10661;SDS011;5379;51.034;7.006;2022-09-06T04:07:04;4.73;;;4.20;;
10661;SDS011;5379;51.034;7.006;2022-09-06T04:09:31;3.67;;;3.37;;
10661;SDS011;5379;51.034;7.006;2022-09-06T04:11:58;3.60;;;3.40;;
10661;SDS011;5379;51.034;7.006;2022-09-06T04:14:27;4.87;;;3.90;;
10661;SDS011;5379;51.034;7.006;2022-09-06T04:16:54;5.37;;;3.80;;
10661;SDS011;5379;51.034;7.006;2022-09-06T04:19:21;5.00;;;4.07;;
10661;SDS011;5379;51.034;7.006;2022-09-06T04:21:48;4.77;;;4.07;;
10661;SDS011;5379;51.034;7.006;2022-09-06T04:24:15;4.30;;;3.90;;
10661;SDS011;5379;51.034;7.006;2022-09-06T04:26:42;7.40;;;3.87;;
10661;SDS011;5379;51.034;7.006;2022-09-06T04:29:10;4.93;;;3.67;;
10661;SDS011;5379;51.034;7.006;2022-09-06T04:31:38;4.03;;;3.73;;
10661;SDS011;5379;51.034;7.006;2022-09-06T04:34:05;6.03;;;4.37;;
10661;SDS011;5379;51.034;7.006;2022-09-06T04:36:32;5.00;;;3.57;;
10661;SDS011;5379;51.034;7.006;2022-09-06T04:38:59;3.93;;;3.60;;
10661;SDS011;5379;51.034;7.006;2022-09-06T04:41:26;3.43;;;3.07;;
10661;SDS011;5379;51.034;7.006;2022-09-06T04:43:53;4.37;;;3.50;;
10661;SDS011;5379;51.034;7.006;2022-09-06T04:46:21;4.27;;;3.87;;
10661;SDS011;5379;51.034;7.006;2022-09-06T04:48:51;5.03;;;3.70;;
10661;SDS011;5379;51.034;7.006;2022-09-06T04:51:20;3.80;;;3.50;;
10661;SDS011;5379;51.034;7.006;2022-09-06T04:53:47;5.93;;;3.43;;
10661;SDS011;5379;51.034;7.006;2022-09-06T04:56:15;4.43;;;4.03;;
10661;SDS011;5379;51.034;7.006;2022-09-06T04:58:45;4.53;;;4.10;;
10661;SDS011;5379;51.034;7.006;2022-09-06T05:01:12;5.97;;;4.23;;
10661;SDS011;5379;51.034;7.006;2022-09-06T05:03:40;8.03;;;4.23;;
10661;SDS011;5379;51.034;7.006;2022-09-06T05:06:09;9.37;;;4.27;;
10661;SDS011;5379;51.034;7.006;2022-09-06T05:08:37;5.33;;;3.80;;
10661;SDS011;5379;51.034;7.006;2022-09-06T05:11:05;7.43;;;3.40;;
10661;SDS011;5379;51.034;7.006;2022-09-06T05:13:32;3.73;;;3.43;;
10661;SDS011;5379;51.034;7.006;2022-09-06T05:16:00;8.40;;;3.90;;
10661;SDS011;5379;51.034;7.006;2022-09-06T05:18:27;3.77;;;3.47;;
10661;SDS011;5379;51.034;7.006;2022-09-06T05:20:55;9.13;;;4.20;;
10661;SDS011;5379;51.034;7.006;2022-09-06T05:23:24;6.57;;;4.00;;
10661;SDS011;5379;51.034;7.006;2022-09-06T05:25:52;5.30;;;4.10;;
10661;SDS011;5379;51.034;7.006;2022-09-06T05:28:19;6.90;;;4.20;;
10661;SDS011;5379;51.034;7.006;2022-09-06T05:30:47;5.63;;;3.53;;
10661;SDS011;5379;51.034;7.006;2022-09-06T05:33:18;7.17;;;3.93;;
10661;SDS011;5379;51.034;7.006;2022-09-06T05:35:48;6.03;;;4.00;;
10661;SDS011;5379;51.034;7.006;2022-09-06T05:38:15;4.40;;;4.00;;
10661;SDS011;5379;51.034;7.006;2022-09-06T05:40:44;5.70;;;4.43;;
10661;SDS011;5379;51.034;7.006;2022-09-06T05:43:11;4.17;;;3.77;;
10661;SDS011;5379;51.034;7.006;2022-09-06T05:45:38;6.63;;;3.97;;
10661;SDS011;5379;51.034;7.006;2022-09-06T05:48:05;6.67;;;3.30;;
10661;SDS011;5379;51.034;7.006;2022-09-06T05:50:32;3.13;;;2.90;;
10661;SDS011;5379;51.034;7.006;2022-09-06T05:52:59;3.17;;;2.97;;
10661;SDS011;5379;51.034;7.006;2022-09-06T05:55:26;3.23;;;3.03;;
10661;SDS011;5379;51.034;7.006;2022-09-06T05:57:55;5.00;;;3.77;;
10661;SDS011;5379;51.034;7.006;2022-09-06T06:00:22;5.67;;;3.27;;
10661;SDS011;5379;51.034;7.006;2022-09-06T06:02:49;3.97;;;3.10;;
10661;SDS011;5379;51.034;7.006;2022-09-06T06:05:16;4.00;;;3.10;;
10661;SDS011;5379;51.034;7.006;2022-09-06T06:07:43;3.67;;;3.07;;
10661;SDS011;5379;51.034;7.006;2022-09-06T06:10:10;3.17;;;2.97;;
10661;SDS011;5379;51.034;7.006;2022-09-06T06:12:37;3.23;;;3.03;;
10661;SDS011;5379;51.034;7.006;2022-09-06T06:15:06;10.27;;;3.83;;
10661;SDS011;5379;51.034;7.006;2022-09-06T06:17:33;5.07;;;3.33;;
10661;SDS011;5379;51.034;7.006;2022-09-06T06:20:01;5.33;;;3.20;;
10661;SDS011;5379;51.034;7.006;2022-09-06T06:22:28;5.83;;;2.73;;
10661;SDS011;5379;51.034;7.006;2022-09-06T06:24:55;9.47;;;3.30;;
10661;SDS011;5379;51.034;7.006;2022-09-06T06:27:22;6.93;;;3.20;;
10661;SDS011;5379;51.034;7.006;2022-09-06T06:29:49;3.20;;;3.00;;
10661;SDS011;5379;51.034;7.006;2022-09-06T06:32:18;3.30;;;3.00;;
10661;SDS011;5379;51.034;7.006;2022-09-06T06:34:45;4.07;;;2.97;;
10661;SDS011;5379;51.034;7.006;2022-09-06T06:37:12;5.17;;;2.77;;
10661;SDS011;5379;51.034;7.006;2022-09-06T06:39:39;5.67;;;2.57;;
10661;SDS011;5379;51.034;7.006;2022-09-06T06:42:06;2.83;;;2.60;;
10661;SDS011;5379;51.034;7.006;2022-09-06T06:44:33;6.97;;;2.80;;
10661;SDS011;5379;51.034;7.006;2022-09-06T06:47:00;4.30;;;2.53;;
10661;SDS011;5379;51.034;7.006;2022-09-06T06:49:29;4.20;;;2.40;;
10661;SDS011;5379;51.034;7.006;2022-09-06T06:51:56;2.47;;;2.20;;
10661;SDS011;5379;51.034;7.006;2022-09-06T06:54:23;2.93;;;2.73;;
10661;SDS011;5379;51.034;7.006;2022-09-06T06:56:50;2.87;;;2.23;;
10661;SDS011;5379;51.034;7.006;2022-09-06T06:59:18;2.83;;;2.27;;
10661;SDS011;5379;51.034;7.006;2022-09-06T07:01:45;3.83;;;2.80;;
10661;SDS011;5379;51.034;7.006;2022-09-06T07:04:14;2.70;;;1.93;;
10661;SDS011;5379;51.034;7.006;2022-09-06T07:06:46;2.40;;;2.10;;
10661;SDS011;5379;51.034;7.006;2022-09-06T07:09:15;3.47;;;2.43;;
10661;SDS011;5379;51.034;7.006;2022-09-06T07:11:43;2.43;;;2.23;;
10661;SDS011;5379;51.034;7.006;2022-09-06T07:14:10;2.40;;;2.20;;
10661;SDS011;5379;51.034;7.006;2022-09-06T07:16:37;2.70;;;2.00;;
10661;SDS011;5379;51.034;7.006;2022-09-06T07:19:04;7.37;;;2.00;;
10661;SDS011;5379;51.034;7.006;2022-09-06T07:21:31;2.50;;;2.00;;
10661;SDS011;5379;51.034;7.006;2022-09-06T07:24:00;2.07;;;1.97;;
10661;SDS011;5379;51.034;7.006;2022-09-06T07:26:28;2.10;;;2.00;;
10661;SDS011;5379;51.034;7.006;2022-09-06T07:28:56;2.50;;;2.17;;
10661;SDS011;5379;51.034;7.006;2022-09-06T07:31:25;2.10;;;2.00;;
10661;SDS011;5379;51.034;7.006;2022-09-06T07:33:53;2.23;;;2.07;;
10661;SDS011;5379;51.034;7.006;2022-09-06T07:36:20;3.00;;;1.80;;
10661;SDS011;5379;51.034;7.006;2022-09-06T07:38:47;2.00;;;1.90;;
10661;SDS011;5379;51.034;7.006;2022-09-06T07:41:17;2.10;;;1.90;;
10661;SDS011;5379;51.034;7.006;2022-09-06T07:43:44;1.80;;;1.70;;
10661;SDS011;5379;51.034;7.006;2022-09-06T07:46:12;1.93;;;1.83;;
10661;SDS011;5379;51.034;7.006;2022-09-06T07:48:41;2.97;;;1.80;;
10661;SDS011;5379;51.034;7.006;2022-09-06T07:51:09;1.40;;;1.30;;
10661;SDS011;5379;51.034;7.006;2022-09-06T07:53:38;2.87;;;1.97;;
10661;SDS011;5379;51.034;7.006;2022-09-06T07:56:07;3.90;;;1.53;;
10661;SDS011;5379;51.034;7.006;2022-09-06T07:58:38;1.40;;;1.30;;
10661;SDS011;5379;51.034;7.006;2022-09-06T08:03:58;2.67;;;1.60;;
10661;SDS011;5379;51.034;7.006;2022-09-06T08:06:28;5.70;;;1.20;;
10661;SDS011;5379;51.034;7.006;2022-09-06T08:08:56;4.30;;;1.47;;
10661;SDS011;5379;51.034;7.006;2022-09-06T08:11:25;1.33;;;1.23;;
10661;SDS011;5379;51.034;7.006;2022-09-06T08:13:56;1.97;;;1.87;;
10661;SDS011;5379;51.034;7.006;2022-09-06T08:16:24;1.37;;;1.27;;
10661;SDS011;5379;51.034;7.006;2022-09-06T08:18:53;1.70;;;1.13;;
10661;SDS011;5379;51.034;7.006;2022-09-06T08:21:22;1.13;;;1.13;;
10661;SDS011;5379;51.034;7.006;2022-09-06T08:23:51;1.50;;;1.30;;
10661;SDS011;5379;51.034;7.006;2022-09-06T08:26:21;1.40;;;1.30;;
10661;SDS011;5379;51.034;7.006;2022-09-06T08:28:51;0.93;;;0.93;;
10661;SDS011;5379;51.034;7.006;2022-09-06T08:31:21;0.83;;;0.83;;
10661;SDS011;5379;51.034;7.006;2022-09-06T08:33:48;1.13;;;1.10;;
10661;SDS011;5379;51.034;7.006;2022-09-06T08:36:17;1.07;;;1.07;;
10661;SDS011;5379;51.034;7.006;2022-09-06T08:38:44;0.97;;;0.97;;
10661;SDS011;5379;51.034;7.006;2022-09-06T08:41:16;0.70;;;0.70;;
10661;SDS011;5379;51.034;7.006;2022-09-06T08:43:50;3.70;;;1.13;;
10661;SDS011;5379;51.034;7.006;2022-09-06T08:46:20;0.93;;;0.93;;
10661;SDS011;5379;51.034;7.006;2022-09-06T08:48:52;1.60;;;0.80;;
10661;SDS011;5379;51.034;7.006;2022-09-06T08:51:36;0.83;;;0.83;;
10661;SDS011;5379;51.034;7.006;2022-09-06T08:54:14;0.80;;;0.80;;
10661;SDS011;5379;51.034;7.006;2022-09-06T08:56:53;0.90;;;0.90;;
10661;SDS011;5379;51.034;7.006;2022-09-06T08:59:29;2.20;;;1.10;;
10661;SDS011;5379;51.034;7.006;2022-09-06T09:02:06;0.90;;;0.90;;
10661;SDS011;5379;51.034;7.006;2022-09-06T09:04:38;0.97;;;0.97;;
10661;SDS011;5379;51.034;7.006;2022-09-06T09:07:14;0.97;;;0.97;;
10661;SDS011;5379;51.034;7.006;2022-09-06T09:09:58;1.70;;;0.93;;
10661;SDS011;5379;51.034;7.006;2022-09-06T09:12:28;0.90;;;0.90;;
10661;SDS011;5379;51.034;7.006;2022-09-06T09:15:01;0.80;;;0.80;;
10661;SDS011;5379;51.034;7.006;2022-09-06T09:17:35;1.10;;;1.07;;
10661;SDS011;5379;51.034;7.006;2022-09-06T09:20:03;0.80;;;0.80;;
10661;SDS011;5379;51.034;7.006;2022-09-06T09:22:32;1.03;;;1.00;;
10661;SDS011;5379;51.034;7.006;2022-09-06T09:25:00;0.70;;;0.70;;
10661;SDS011;5379;51.034;7.006;2022-09-06T09:27:28;1.00;;;0.90;;
10661;SDS011;5379;51.034;7.006;2022-09-06T09:29:58;1.40;;;1.13;;
10661;SDS011;5379;51.034;7.006;2022-09-06T09:32:30;1.03;;;0.97;;
10661;SDS011;5379;51.034;7.006;2022-09-06T09:37:54;0.90;;;0.90;;
10661;SDS011;5379;51.034;7.006;2022-09-06T09:40:29;2.90;;;0.97;;
10661;SDS011;5379;51.034;7.006;2022-09-06T09:43:09;0.73;;;0.73;;
10661;SDS011;5379;51.034;7.006;2022-09-06T09:45:39;3.80;;;1.10;;
10661;SDS011;5379;51.034;7.006;2022-09-06T09:48:20;4.53;;;1.10;;
10661;SDS011;5379;51.034;7.006;2022-09-06T09:50:52;0.87;;;0.87;;
10661;SDS011;5379;51.034;7.006;2022-09-06T09:53:21;0.77;;;0.77;;
10661;SDS011;5379;51.034;7.006;2022-09-06T09:55:53;3.70;;;1.00;;
10661;SDS011;5379;51.034;7.006;2022-09-06T09:58:30;1.87;;;1.03;;
10661;SDS011;5379;51.034;7.006;2022-09-06T10:01:09;1.27;;;1.17;;
10661;SDS011;5379;51.034;7.006;2022-09-06T10:03:38;1.13;;;1.10;;
10661;SDS011;5379;51.034;7.006;2022-09-06T10:06:07;0.80;;;0.80;;
10661;SDS011;5379;51.034;7.006;2022-09-06T10:08:38;0.93;;;0.90;;
10661;SDS011;5379;51.034;7.006;2022-09-06T10:11:10;1.67;;;0.80;;
10661;SDS011;5379;51.034;7.006;2022-09-06T10:13:38;0.80;;;0.80;;
10661;SDS011;5379;51.034;7.006;2022-09-06T10:16:07;0.93;;;0.93;;
10661;SDS011;5379;51.034;7.006;2022-09-06T10:18:35;0.93;;;0.93;;
10661;SDS011;5379;51.034;7.006;2022-09-06T10:21:04;3.50;;;1.00;;
10661;SDS011;5379;51.034;7.006;2022-09-06T10:23:39;1.17;;;1.07;;
10661;SDS011;5379;51.034;7.006;2022-09-06T10:26:20;1.30;;;1.20;;
10661;SDS011;5379;51.034;7.006;2022-09-06T10:28:56;1.20;;;1.10;;
10661;SDS011;5379;51.034;7.006;2022-09-06T10:31:40;1.07;;;1.07;;
10661;SDS011;5379;51.034;7.006;2022-09-06T10:37:21;1.13;;;1.03;;
10661;SDS011;5379;51.034;7.006;2022-09-06T10:39:59;0.73;;;0.73;;
10661;SDS011;5379;51.034;7.006;2022-09-06T10:42:34;3.13;;;1.10;;
10661;SDS011;5379;51.034;7.006;2022-09-06T10:45:15;4.27;;;1.40;;
10661;SDS011;5379;51.034;7.006;2022-09-06T10:47:56;1.20;;;0.97;;
10661;SDS011;5379;51.034;7.006;2022-09-06T10:50:29;7.20;;;1.40;;
10661;SDS011;5379;51.034;7.006;2022-09-06T10:53:05;1.77;;;1.63;;
10661;SDS011;5379;51.034;7.006;2022-09-06T10:55:38;0.87;;;0.87;;
10661;SDS011;5379;51.034;7.006;2022-09-06T10:58:06;0.90;;;0.90;;
10661;SDS011;5379;51.034;7.006;2022-09-06T11:00:38;0.97;;;0.90;;
10661;SDS011;5379;51.034;7.006;2022-09-06T11:03:13;0.97;;;0.97;;
10661;SDS011;5379;51.034;7.006;2022-09-06T11:05:47;1.30;;;1.20;;
10661;SDS011;5379;51.034;7.006;2022-09-06T11:08:19;1.17;;;1.10;;
10661;SDS011;5379;51.034;7.006;2022-09-06T11:10:54;1.03;;;0.90;;
10661;SDS011;5379;51.034;7.006;2022-09-06T11:13:23;1.10;;;1.10;;
10661;SDS011;5379;51.034;7.006;2022-09-06T11:15:55;1.20;;;1.10;;
10661;SDS011;5379;51.034;7.006;2022-09-06T11:18:28;0.90;;;0.90;;
10661;SDS011;5379;51.034;7.006;2022-09-06T11:21:09;1.13;;;1.10;;
10661;SDS011;5379;51.034;7.006;2022-09-06T11:23:56;1.10;;;1.10;;
10661;SDS011;5379;51.034;7.006;2022-09-06T11:26:34;2.57;;;1.23;;
10661;SDS011;5379;51.034;7.006;2022-09-06T11:29:08;0.90;;;0.90;;
10661;SDS011;5379;51.034;7.006;2022-09-06T11:31:52;1.50;;;1.30;;
10661;SDS011;5379;51.034;7.006;2022-09-06T11:34:21;1.17;;;1.17;;
10661;SDS011;5379;51.034;7.006;2022-09-06T11:36:50;4.17;;;1.40;;
10661;SDS011;5379;51.034;7.006;2022-09-06T11:39:23;9.73;;;1.27;;
10661;SDS011;5379;51.034;7.006;2022-09-06T11:41:54;3.00;;;1.50;;
10661;SDS011;5379;51.034;7.006;2022-09-06T11:53:13;1.23;;;1.23;;
10661;SDS011;5379;51.034;7.006;2022-09-06T11:55:42;2.33;;;1.30;;
10661;SDS011;5379;51.034;7.006;2022-09-06T11:58:19;1.80;;;1.50;;
10661;SDS011;5379;51.034;7.006;2022-09-06T12:04:01;1.33;;;1.23;;
10661;SDS011;5379;51.034;7.006;2022-09-06T12:06:31;1.17;;;0.90;;
10661;SDS011;5379;51.034;7.006;2022-09-06T12:09:00;1.27;;;1.17;;
10661;SDS011;5379;51.034;7.006;2022-09-06T12:11:48;1.60;;;1.27;;
10661;SDS011;5379;51.034;7.006;2022-09-06T12:14:27;4.53;;;1.63;;
10661;SDS011;5379;51.034;7.006;2022-09-06T12:19:52;1.33;;;1.10;;
10661;SDS011;5379;51.034;7.006;2022-09-06T12:28:30;2.10;;;1.60;;
10661;SDS011;5379;51.034;7.006;2022-09-06T12:34:06;2.40;;;1.50;;
10661;SDS011;5379;51.034;7.006;2022-09-06T12:36:38;6.70;;;1.87;;
10661;SDS011;5379;51.034;7.006;2022-09-06T12:39:14;1.20;;;1.13;;
10661;SDS011;5379;51.034;7.006;2022-09-06T12:41:42;1.40;;;1.23;;
10661;SDS011;5379;51.034;7.006;2022-09-06T12:44:12;4.20;;;1.20;;
10661;SDS011;5379;51.034;7.006;2022-09-06T12:46:45;1.83;;;1.40;;
10661;SDS011;5379;51.034;7.006;2022-09-06T12:49:14;2.37;;;1.47;;
10661;SDS011;5379;51.034;7.006;2022-09-06T12:51:44;1.60;;;1.50;;
10661;SDS011;5379;51.034;7.006;2022-09-06T12:54:18;1.23;;;1.20;;
10661;SDS011;5379;51.034;7.006;2022-09-06T12:56:47;1.43;;;1.30;;
10661;SDS011;5379;51.034;7.006;2022-09-06T12:59:16;1.30;;;1.20;;
10661;SDS011;5379;51.034;7.006;2022-09-06T13:01:56;1.43;;;1.33;;
10661;SDS011;5379;51.034;7.006;2022-09-06T13:04:30;2.50;;;1.40;;
10661;SDS011;5379;51.034;7.006;2022-09-06T13:07:04;3.90;;;1.47;;
10661;SDS011;5379;51.034;7.006;2022-09-06T13:09:34;2.17;;;0.93;;
10661;SDS011;5379;51.034;7.006;2022-09-06T13:12:08;0.70;;;0.70;;
10661;SDS011;5379;51.034;7.006;2022-09-06T13:14:50;1.10;;;1.10;;
10661;SDS011;5379;51.034;7.006;2022-09-06T13:17:23;1.70;;;1.13;;
10661;SDS011;5379;51.034;7.006;2022-09-06T13:19:51;1.93;;;1.40;;
10661;SDS011;5379;51.034;7.006;2022-09-06T13:25:12;3.10;;;1.23;;
10661;SDS011;5379;51.034;7.006;2022-09-06T13:27:48;0.90;;;0.90;;
10661;SDS011;5379;51.034;7.006;2022-09-06T13:30:29;3.37;;;1.67;;
10661;SDS011;5379;51.034;7.006;2022-09-06T13:33:00;0.80;;;0.80;;
10661;SDS011;5379;51.034;7.006;2022-09-06T13:35:29;1.20;;;1.20;;
10661;SDS011;5379;51.034;7.006;2022-09-06T13:40:44;1.50;;;1.40;;
10661;SDS011;5379;51.034;7.006;2022-09-06T13:43:12;0.90;;;0.87;;
10661;SDS011;5379;51.034;7.006;2022-09-06T13:45:39;0.93;;;0.93;;
10661;SDS011;5379;51.034;7.006;2022-09-06T13:48:07;2.20;;;1.27;;
10661;SDS011;5379;51.034;7.006;2022-09-06T13:50:34;1.07;;;1.07;;
10661;SDS011;5379;51.034;7.006;2022-09-06T13:53:02;1.07;;;1.00;;
10661;SDS011;5379;51.034;7.006;2022-09-06T13:55:29;1.30;;;1.20;;
10661;SDS011;5379;51.034;7.006;2022-09-06T13:57:57;1.40;;;1.00;;
10661;SDS011;5379;51.034;7.006;2022-09-06T14:00:24;1.10;;;1.00;;
10661;SDS011;5379;51.034;7.006;2022-09-06T14:02:52;1.83;;;1.10;;
10661;SDS011;5379;51.034;7.006;2022-09-06T14:05:21;2.90;;;1.00;;
10661;SDS011;5379;51.034;7.006;2022-09-06T14:07:48;1.20;;;1.03;;
10661;SDS011;5379;51.034;7.006;2022-09-06T14:10:15;1.10;;;1.10;;
10661;SDS011;5379;51.034;7.006;2022-09-06T14:12:43;2.13;;;1.17;;
10661;SDS011;5379;51.034;7.006;2022-09-06T14:15:10;2.60;;;1.53;;
10661;SDS011;5379;51.034;7.006;2022-09-06T14:17:37;0.90;;;0.90;;
10661;SDS011;5379;51.034;7.006;2022-09-06T14:20:05;3.00;;;1.20;;
10661;SDS011;5379;51.034;7.006;2022-09-06T14:22:34;1.20;;;1.20;;
10661;SDS011;5379;51.034;7.006;2022-09-06T14:25:01;1.53;;;1.17;;
10661;SDS011;5379;51.034;7.006;2022-09-06T14:27:31;1.90;;;1.77;;
10661;SDS011;5379;51.034;7.006;2022-09-06T14:29:59;2.10;;;1.57;;
10661;SDS011;5379;51.034;7.006;2022-09-06T14:32:26;1.80;;;1.17;;
10661;SDS011;5379;51.034;7.006;2022-09-06T14:34:53;1.20;;;0.97;;
10661;SDS011;5379;51.034;7.006;2022-09-06T14:37:20;0.70;;;0.70;;
10661;SDS011;5379;51.034;7.006;2022-09-06T14:39:48;1.40;;;1.30;;
10661;SDS011;5379;51.034;7.006;2022-09-06T14:42:15;0.87;;;0.80;;
10661;SDS011;5379;51.034;7.006;2022-09-06T14:44:43;2.07;;;1.60;;
10661;SDS011;5379;51.034;7.006;2022-09-06T14:47:10;1.00;;;1.00;;
10661;SDS011;5379;51.034;7.006;2022-09-06T14:49:37;0.90;;;0.90;;
10661;SDS011;5379;51.034;7.006;2022-09-06T14:52:04;2.10;;;1.20;;
10661;SDS011;5379;51.034;7.006;2022-09-06T14:54:32;2.33;;;1.00;;
10661;SDS011;5379;51.034;7.006;2022-09-06T14:57:01;1.13;;;1.03;;
10661;SDS011;5379;51.034;7.006;2022-09-06T14:59:28;1.77;;;1.50;;
10661;SDS011;5379;51.034;7.006;2022-09-06T15:01:56;2.10;;;1.50;;
10661;SDS011;5379;51.034;7.006;2022-09-06T15:04:23;2.73;;;1.33;;
10661;SDS011;5379;51.034;7.006;2022-09-06T15:06:51;2.10;;;1.33;;
10661;SDS011;5379;51.034;7.006;2022-09-06T15:09:18;1.63;;;1.53;;
10661;SDS011;5379;51.034;7.006;2022-09-06T15:11:46;0.87;;;0.87;;
10661;SDS011;5379;51.034;7.006;2022-09-06T15:14:17;1.17;;;1.07;;
10661;SDS011;5379;51.034;7.006;2022-09-06T15:16:46;1.73;;;1.53;;
10661;SDS011;5379;51.034;7.006;2022-09-06T15:19:16;1.00;;;1.00;;
10661;SDS011;5379;51.034;7.006;2022-09-06T15:21:44;1.80;;;1.43;;
10661;SDS011;5379;51.034;7.006;2022-09-06T15:24:12;1.10;;;1.07;;
10661;SDS011;5379;51.034;7.006;2022-09-06T15:26:39;4.60;;;1.70;;
10661;SDS011;5379;51.034;7.006;2022-09-06T15:29:07;0.93;;;0.90;;
10661;SDS011;5379;51.034;7.006;2022-09-06T15:31:36;3.93;;;1.37;;
10661;SDS011;5379;51.034;7.006;2022-09-06T15:34:04;1.03;;;1.03;;
10661;SDS011;5379;51.034;7.006;2022-09-06T15:36:32;1.30;;;1.10;;
10661;SDS011;5379;51.034;7.006;2022-09-06T15:38:59;2.97;;;1.20;;
10661;SDS011;5379;51.034;7.006;2022-09-06T15:41:28;2.07;;;1.87;;
10661;SDS011;5379;51.034;7.006;2022-09-06T15:43:57;3.67;;;0.90;;
10661;SDS011;5379;51.034;7.006;2022-09-06T15:46:40;0.90;;;0.83;;
10661;SDS011;5379;51.034;7.006;2022-09-06T15:49:10;0.50;;;0.50;;
10661;SDS011;5379;51.034;7.006;2022-09-06T15:51:39;2.50;;;1.60;;
10661;SDS011;5379;51.034;7.006;2022-09-06T15:54:08;2.17;;;1.80;;
10661;SDS011;5379;51.034;7.006;2022-09-06T15:56:36;2.20;;;1.33;;
10661;SDS011;5379;51.034;7.006;2022-09-06T15:59:03;2.13;;;1.27;;